createdAt,value
2018-04-30T00:01:58.917Z,7.53
2018-04-30T00:04:27.157Z,7.67
2018-04-30T00:06:56.172Z,7.63
2018-04-30T00:09:24.421Z,8.27
2018-04-30T00:11:53.455Z,8.43
2018-04-30T00:14:21.744Z,7.73
2018-04-30T00:16:50.017Z,7.80
2018-04-30T00:19:18.308Z,8.20
2018-04-30T00:21:46.559Z,8.40
2018-04-30T00:24:14.825Z,8.60
2018-04-30T00:26:43.124Z,8.90
2018-04-30T00:29:11.378Z,8.80
2018-04-30T00:31:39.645Z,8.37
2018-04-30T00:34:07.899Z,8.90
2018-04-30T00:36:37.050Z,8.50
2018-04-30T00:39:05.325Z,8.37
2018-04-30T00:41:33.581Z,8.83
2018-04-30T00:44:01.850Z,8.80
2018-04-30T00:46:30.120Z,9.20
2018-04-30T00:48:58.429Z,9.50
2018-04-30T00:51:26.703Z,9.40
2018-04-30T00:53:54.972Z,9.37
2018-04-30T00:56:23.256Z,8.80
2018-04-30T00:58:51.516Z,9.30
2018-04-30T01:01:19.785Z,9.57
2018-04-30T01:03:48.036Z,9.37
2018-04-30T01:06:16.293Z,9.80
2018-04-30T01:08:44.559Z,10.20
2018-04-30T01:11:12.826Z,10.60
2018-04-30T01:13:41.097Z,10.70
2018-04-30T01:16:09.357Z,10.10
2018-04-30T01:18:37.612Z,9.13
2018-04-30T01:21:05.914Z,10.37
2018-04-30T01:23:34.180Z,9.67
2018-04-30T01:26:02.453Z,9.60
2018-04-30T01:28:30.732Z,10.33
2018-04-30T01:30:58.993Z,10.20
2018-04-30T01:33:27.300Z,10.10
2018-04-30T01:35:55.578Z,10.93
2018-04-30T01:38:23.939Z,10.23
2018-04-30T01:40:52.206Z,10.50
2018-04-30T01:43:20.473Z,10.87
2018-04-30T01:45:48.769Z,11.33
2018-04-30T01:48:17.024Z,10.60
2018-04-30T01:50:45.313Z,10.97
2018-04-30T01:53:13.587Z,12.00
2018-04-30T01:55:41.864Z,11.73
2018-04-30T01:58:10.136Z,12.10
2018-04-30T02:00:38.544Z,12.03
2018-04-30T02:03:06.900Z,11.80
2018-04-30T02:05:35.168Z,11.57
2018-04-30T02:08:03.436Z,11.67
2018-04-30T02:10:31.701Z,11.60
2018-04-30T02:13:00.005Z,12.67
2018-04-30T02:15:28.275Z,11.70
2018-04-30T02:17:56.901Z,12.07
2018-04-30T02:20:25.132Z,11.90
2018-04-30T02:22:53.401Z,11.77
2018-04-30T02:25:21.690Z,12.03
2018-04-30T02:27:49.968Z,12.00
2018-04-30T02:30:18.249Z,11.80
2018-04-30T02:32:46.508Z,12.90
2018-04-30T02:35:14.765Z,13.57
2018-04-30T02:37:43.060Z,12.83
2018-04-30T02:40:11.342Z,12.97
2018-04-30T02:42:39.609Z,13.03
2018-04-30T02:45:07.874Z,11.90
2018-04-30T02:47:36.129Z,13.43
2018-04-30T02:50:05.145Z,13.93
2018-04-30T02:52:33.441Z,13.87
2018-04-30T02:55:01.704Z,12.97
2018-04-30T02:57:29.997Z,14.53
2018-04-30T02:59:58.248Z,14.37
2018-04-30T03:02:26.512Z,14.10
2018-04-30T03:04:54.821Z,15.13
2018-04-30T03:07:23.183Z,14.93
2018-04-30T03:09:51.573Z,14.83
2018-04-30T03:12:19.747Z,15.60
2018-04-30T03:14:48.021Z,14.87
2018-04-30T03:17:16.291Z,15.97
2018-04-30T03:19:44.568Z,16.23
2018-04-30T03:22:12.860Z,15.63
2018-04-30T03:24:41.125Z,16.13
2018-04-30T03:27:09.413Z,16.37
2018-04-30T03:29:37.767Z,15.90
2018-04-30T03:32:06.072Z,16.53
2018-04-30T03:34:34.438Z,16.03
2018-04-30T03:37:02.696Z,16.90
2018-04-30T03:39:30.970Z,16.10
2018-04-30T03:41:59.265Z,16.90
2018-04-30T03:44:27.547Z,16.80
2018-04-30T03:46:55.799Z,17.53
2018-04-30T03:49:24.064Z,17.33
2018-04-30T03:51:52.360Z,17.63
2018-04-30T03:54:20.636Z,16.93
2018-04-30T03:56:48.902Z,18.37
2018-04-30T03:59:17.157Z,17.30
2018-04-30T04:01:57.359Z,17.23
2018-04-30T04:04:37.705Z,18.20
2018-04-30T04:07:06.300Z,16.90
2018-04-30T04:09:34.658Z,16.87
2018-04-30T04:12:02.934Z,16.57
2018-04-30T04:14:31.213Z,17.80
2018-04-30T04:16:59.491Z,17.40
2018-04-30T04:19:27.864Z,16.17
2018-04-30T04:21:56.147Z,16.63
2018-04-30T04:24:24.452Z,17.43
2018-04-30T04:26:52.797Z,16.63
2018-04-30T04:29:21.047Z,16.90
2018-04-30T04:31:49.325Z,17.20
2018-04-30T04:34:17.628Z,16.40
2018-04-30T04:36:46.762Z,16.83
2018-04-30T04:39:15.783Z,15.67
2018-04-30T04:41:44.110Z,15.27
2018-04-30T04:44:12.372Z,16.40
2018-04-30T04:46:40.649Z,16.30
2018-04-30T04:49:09.016Z,16.00
2018-04-30T04:51:37.941Z,16.30
2018-04-30T04:54:07.036Z,16.43
2018-04-30T04:56:35.263Z,16.27
2018-04-30T04:59:03.556Z,16.30
2018-04-30T05:01:31.828Z,15.23
2018-04-30T05:04:00.086Z,15.70
2018-04-30T05:06:28.331Z,15.63
2018-04-30T05:08:57.366Z,15.43
2018-04-30T05:11:26.456Z,15.60
2018-04-30T05:13:54.708Z,15.17
2018-04-30T05:16:23.042Z,15.40
2018-04-30T05:18:51.537Z,15.03
2018-04-30T05:21:19.770Z,15.10
2018-04-30T05:23:48.036Z,13.93
2018-04-30T05:26:16.320Z,15.53
2018-04-30T05:28:44.595Z,14.63
2018-04-30T05:31:12.903Z,14.40
2018-04-30T05:33:41.452Z,15.27
2018-04-30T05:36:09.697Z,14.13
2018-04-30T05:38:38.991Z,13.60
2018-04-30T05:41:07.260Z,13.50
2018-04-30T05:43:36.306Z,13.30
2018-04-30T05:46:04.576Z,11.67
2018-04-30T05:48:32.844Z,11.70
2018-04-30T05:51:01.167Z,12.17
2018-04-30T05:53:29.423Z,11.93
2018-04-30T05:55:57.718Z,11.40
2018-04-30T05:58:25.956Z,11.80
2018-04-30T06:00:54.218Z,11.40
2018-04-30T06:03:22.475Z,11.20
2018-04-30T06:05:50.778Z,11.17
2018-04-30T06:08:19.032Z,11.47
2018-04-30T06:10:48.875Z,12.77
2018-04-30T06:13:17.144Z,11.67
2018-04-30T06:15:45.416Z,12.73
2018-04-30T06:18:13.712Z,12.20
2018-04-30T06:20:42.035Z,11.27
2018-04-30T06:23:10.359Z,11.57
2018-04-30T06:25:38.622Z,11.50
2018-04-30T06:28:07.770Z,11.10
2018-04-30T06:30:36.785Z,11.53
2018-04-30T06:33:05.090Z,11.93
2018-04-30T06:35:33.337Z,11.90
2018-04-30T06:38:01.612Z,11.30
2018-04-30T06:40:29.917Z,11.97
2018-04-30T06:42:58.209Z,11.33
2018-04-30T06:45:26.466Z,11.23
2018-04-30T06:47:54.728Z,11.67
2018-04-30T06:50:22.982Z,10.87
2018-04-30T06:52:52.012Z,11.57
2018-04-30T06:55:20.268Z,11.13
2018-04-30T06:57:48.797Z,10.40
2018-04-30T07:00:17.063Z,10.60
2018-04-30T07:02:46.128Z,9.00
2018-04-30T07:05:14.417Z,8.97
2018-04-30T07:07:42.691Z,7.83
2018-04-30T07:10:10.940Z,7.47
2018-04-30T07:12:39.239Z,7.10
2018-04-30T07:15:08.421Z,6.77
2018-04-30T07:17:37.091Z,6.30
2018-04-30T07:20:06.696Z,5.50
2018-04-30T07:22:34.873Z,5.10
2018-04-30T07:25:03.119Z,5.17
2018-04-30T07:27:31.510Z,4.10
2018-04-30T07:29:59.706Z,4.40
2018-04-30T07:32:28.708Z,3.87
2018-04-30T07:34:56.955Z,4.00
2018-04-30T07:37:25.965Z,4.13
2018-04-30T07:39:54.328Z,4.03
2018-04-30T07:42:23.352Z,4.47
2018-04-30T07:44:51.617Z,4.77
2018-04-30T07:47:20.081Z,4.27
2018-04-30T07:49:48.388Z,3.67
2018-04-30T07:52:16.622Z,4.37
2018-04-30T07:54:46.736Z,4.43
2018-04-30T07:57:15.033Z,3.43
2018-04-30T07:59:43.668Z,2.87
2018-04-30T08:02:12.024Z,2.97
2018-04-30T08:04:40.286Z,1.97
2018-04-30T08:07:08.527Z,2.50
2018-04-30T08:09:37.545Z,1.60
2018-04-30T08:12:05.793Z,1.40
2018-04-30T08:14:34.836Z,1.47
2018-04-30T08:17:03.113Z,1.30
2018-04-30T08:19:31.390Z,1.20
2018-04-30T08:21:59.633Z,1.20
2018-04-30T08:24:27.931Z,1.00
2018-04-30T08:26:56.212Z,1.30
2018-04-30T08:29:24.439Z,1.37
2018-04-30T08:31:53.476Z,2.43
2018-04-30T08:34:21.752Z,1.40
2018-04-30T08:36:50.013Z,1.80
2018-04-30T08:39:18.247Z,1.30
2018-04-30T08:41:46.503Z,1.80
2018-04-30T08:44:14.759Z,1.30
2018-04-30T08:46:43.009Z,1.40
2018-04-30T08:49:11.255Z,1.33
2018-04-30T08:51:39.523Z,1.40
2018-04-30T08:54:07.880Z,1.60
2018-04-30T08:56:36.132Z,1.77
2018-04-30T08:59:04.395Z,1.60
2018-04-30T09:01:33.401Z,1.70
2018-04-30T09:04:01.686Z,1.70
2018-04-30T09:06:29.960Z,1.47
2018-04-30T09:08:58.216Z,1.53
2018-04-30T09:11:26.959Z,1.40
2018-04-30T09:13:55.289Z,1.93
2018-04-30T09:16:23.573Z,1.40
2018-04-30T09:18:51.821Z,1.17
2018-04-30T09:21:20.066Z,1.23
2018-04-30T09:23:48.456Z,1.20
2018-04-30T09:26:16.632Z,1.20
2018-04-30T09:28:45.661Z,1.30
2018-04-30T09:31:13.905Z,1.10
2018-04-30T09:33:42.208Z,1.10
2018-04-30T09:36:10.452Z,1.27
2018-04-30T09:38:39.467Z,1.00
2018-04-30T09:41:07.748Z,1.00
2018-04-30T09:43:36.092Z,1.30
2018-04-30T09:46:04.306Z,0.50
2018-04-30T09:48:32.573Z,0.70
2018-04-30T09:51:01.061Z,0.80
2018-04-30T09:53:29.340Z,0.90
2018-04-30T09:55:57.621Z,0.93
2018-04-30T09:58:25.879Z,0.70
2018-04-30T10:00:54.168Z,0.80
2018-04-30T10:03:22.444Z,0.70
2018-04-30T10:05:50.712Z,1.00
2018-04-30T10:08:18.988Z,0.90
2018-04-30T10:10:47.841Z,1.93
2018-04-30T10:13:16.869Z,2.37
2018-04-30T10:15:48.125Z,0.63
2018-04-30T10:18:28.505Z,1.07
2018-04-30T10:20:57.648Z,0.77
2018-04-30T10:23:25.917Z,0.90
2018-04-30T10:25:54.139Z,0.83
2018-04-30T10:28:22.391Z,0.60
2018-04-30T10:30:50.647Z,0.80
2018-04-30T10:33:18.887Z,0.67
2018-04-30T10:35:47.135Z,0.60
2018-04-30T10:38:15.394Z,0.50
2018-04-30T10:40:44.391Z,0.50
2018-04-30T10:43:12.667Z,0.50
2018-04-30T10:45:40.936Z,0.60
2018-04-30T10:48:11.192Z,0.47
2018-04-30T10:50:39.531Z,0.70
2018-04-30T10:53:08.791Z,0.60
2018-04-30T10:55:38.476Z,0.60
2018-04-30T10:58:06.729Z,0.57
2018-04-30T11:00:34.976Z,0.70
2018-04-30T11:03:03.233Z,0.70
2018-04-30T11:05:32.248Z,0.80
2018-04-30T11:08:00.544Z,0.70
2018-04-30T11:10:28.792Z,0.53
2018-04-30T11:12:58.902Z,0.57
2018-04-30T11:15:27.126Z,0.70
2018-04-30T11:17:55.376Z,0.60
2018-04-30T11:20:23.672Z,0.50
2018-04-30T11:22:52.044Z,0.50
2018-04-30T11:25:20.293Z,0.50
2018-04-30T11:27:48.545Z,0.50
2018-04-30T11:30:17.564Z,0.70
2018-04-30T11:32:45.900Z,0.50
2018-04-30T11:35:14.727Z,0.50
2018-04-30T11:37:43.495Z,0.50
2018-04-30T11:40:12.505Z,0.60
2018-04-30T11:42:41.296Z,0.60
2018-04-30T11:45:09.540Z,0.50
2018-04-30T11:47:38.725Z,0.50
2018-04-30T11:50:06.972Z,0.70
2018-04-30T11:52:35.240Z,0.60
2018-04-30T11:55:04.275Z,0.80
2018-04-30T11:57:32.613Z,0.80
2018-04-30T12:00:00.864Z,0.80
2018-04-30T12:02:29.155Z,0.80
2018-04-30T12:04:57.479Z,0.70
2018-04-30T12:07:26.409Z,0.50
2018-04-30T12:09:54.657Z,0.50
2018-04-30T12:12:23.734Z,0.70
2018-04-30T12:14:52.068Z,0.70
2018-04-30T12:17:20.742Z,0.63
2018-04-30T12:19:48.979Z,0.60
2018-04-30T12:22:18.058Z,1.00
2018-04-30T12:24:46.404Z,0.70
2018-04-30T12:27:14.648Z,0.60
2018-04-30T12:29:43.985Z,0.70
2018-04-30T12:32:12.264Z,0.70
2018-04-30T12:34:40.977Z,0.60
2018-04-30T12:37:09.219Z,0.83
2018-04-30T12:39:37.465Z,0.77
2018-04-30T12:42:05.765Z,0.60
2018-04-30T12:44:33.997Z,0.70
2018-04-30T12:47:03.011Z,0.70
2018-04-30T12:49:31.377Z,0.70
2018-04-30T12:51:59.686Z,0.67
2018-04-30T12:54:27.924Z,0.83
2018-04-30T12:56:56.967Z,0.73
2018-04-30T12:59:25.197Z,0.70
2018-04-30T13:01:54.232Z,1.50
2018-04-30T13:04:22.475Z,0.83
2018-04-30T13:06:50.716Z,0.90
2018-04-30T13:09:18.973Z,0.87
2018-04-30T13:11:47.496Z,0.70
2018-04-30T13:14:16.520Z,0.60
2018-04-30T13:16:45.575Z,0.60
2018-04-30T13:19:14.277Z,0.50
2018-04-30T13:21:43.270Z,0.80
2018-04-30T13:24:11.523Z,0.60
2018-04-30T13:26:40.532Z,0.70
2018-04-30T13:29:09.553Z,0.50
2018-04-30T13:31:37.835Z,0.60
2018-04-30T13:34:06.127Z,0.70
2018-04-30T13:36:34.373Z,0.60
2018-04-30T13:39:02.628Z,0.60
2018-04-30T13:41:31.628Z,0.63
2018-04-30T13:43:59.925Z,0.70
2018-04-30T13:46:28.155Z,1.00
2018-04-30T13:48:57.203Z,0.60
2018-04-30T13:51:26.253Z,0.60
2018-04-30T13:53:55.268Z,0.67
2018-04-30T13:56:23.557Z,0.93
2018-04-30T13:58:51.811Z,0.53
2018-04-30T14:01:20.108Z,0.40
2018-04-30T14:03:49.063Z,1.37
2018-04-30T14:06:18.088Z,0.87
2018-04-30T14:08:46.379Z,0.90
2018-04-30T14:11:14.617Z,0.70
2018-04-30T14:13:42.864Z,0.80
2018-04-30T14:16:11.192Z,0.60
2018-04-30T14:18:41.073Z,0.70
2018-04-30T14:21:09.291Z,0.90
2018-04-30T14:23:38.192Z,0.60
2018-04-30T14:26:06.445Z,0.60
2018-04-30T14:28:34.720Z,0.60
2018-04-30T14:31:02.997Z,0.67
2018-04-30T14:33:31.241Z,0.60
2018-04-30T14:36:00.291Z,0.60
2018-04-30T14:38:28.611Z,0.60
2018-04-30T14:40:56.811Z,0.60
2018-04-30T14:43:25.071Z,0.70
2018-04-30T14:45:53.383Z,0.70
2018-04-30T14:48:22.030Z,0.77
2018-04-30T14:50:50.269Z,0.70
2018-04-30T14:53:18.516Z,0.90
2018-04-30T14:55:46.759Z,0.80
2018-04-30T14:58:15.009Z,0.53
2018-04-30T15:00:44.052Z,0.70
2018-04-30T15:03:12.304Z,0.70
2018-04-30T15:05:40.632Z,0.80
2018-04-30T15:08:08.853Z,0.77
2018-04-30T15:10:37.144Z,0.70
2018-04-30T15:13:06.025Z,0.80
2018-04-30T15:15:34.314Z,0.73
2018-04-30T15:18:02.589Z,0.70
2018-04-30T15:20:30.819Z,0.73
2018-04-30T15:22:59.867Z,0.50
2018-04-30T15:25:28.116Z,1.50
2018-04-30T15:27:56.417Z,0.90
2018-04-30T15:30:24.693Z,0.80
2018-04-30T15:32:53.764Z,0.60
2018-04-30T15:35:22.057Z,0.60
2018-04-30T15:37:50.319Z,0.60
2018-04-30T15:40:18.570Z,0.70
2018-04-30T15:42:47.572Z,0.67
2018-04-30T15:45:15.876Z,0.70
2018-04-30T15:47:44.199Z,0.80
2018-04-30T15:50:12.415Z,0.60
2018-04-30T15:52:40.656Z,0.90
2018-04-30T15:55:09.861Z,1.20
2018-04-30T15:57:38.889Z,0.50
2018-04-30T16:00:07.132Z,0.70
2018-04-30T16:02:36.421Z,0.73
2018-04-30T16:05:05.443Z,0.70
2018-04-30T16:07:33.723Z,0.50
2018-04-30T16:10:02.000Z,0.70
2018-04-30T16:12:30.317Z,6.67
2018-04-30T16:14:58.553Z,1.20
2018-04-30T16:17:26.815Z,1.30
2018-04-30T16:19:55.819Z,1.70
2018-04-30T16:22:24.112Z,0.63
2018-04-30T16:24:52.374Z,0.80
2018-04-30T16:27:20.646Z,0.60
2018-04-30T16:29:48.868Z,0.80
2018-04-30T16:32:17.122Z,1.17
2018-04-30T16:34:45.351Z,3.17
2018-04-30T16:37:13.616Z,0.77
2018-04-30T16:39:42.754Z,1.07
2018-04-30T16:42:10.891Z,1.10
2018-04-30T16:44:39.188Z,0.77
2018-04-30T16:47:07.440Z,1.00
2018-04-30T16:49:35.680Z,0.80
2018-04-30T16:52:03.932Z,1.30
2018-04-30T16:54:32.194Z,1.70
2018-04-30T16:57:00.472Z,2.90
2018-04-30T16:59:28.710Z,2.63
2018-04-30T17:01:57.724Z,3.00
2018-04-30T17:04:26.014Z,2.17
2018-04-30T17:06:54.257Z,1.70
2018-04-30T17:09:22.504Z,3.97
2018-04-30T17:11:50.752Z,2.47
2018-04-30T17:14:18.998Z,1.23
2018-04-30T17:16:47.276Z,0.90
2018-04-30T17:19:16.963Z,1.13
2018-04-30T17:21:45.245Z,1.33
2018-04-30T17:24:13.561Z,0.80
2018-04-30T17:26:41.925Z,1.50
2018-04-30T17:29:10.227Z,3.73
2018-04-30T17:31:38.488Z,8.63
2018-04-30T17:34:06.736Z,2.27
2018-04-30T17:36:35.087Z,3.97
2018-04-30T17:39:03.312Z,2.83
2018-04-30T17:41:31.580Z,2.33
2018-04-30T17:43:59.895Z,1.00
2018-04-30T17:46:28.229Z,0.80
2018-04-30T17:48:56.504Z,0.80
2018-04-30T17:51:24.780Z,1.70
2018-04-30T17:53:53.033Z,1.30
2018-04-30T17:56:21.377Z,3.10
2018-04-30T17:58:50.490Z,1.07
2018-04-30T18:01:18.696Z,1.20
2018-04-30T18:03:46.956Z,1.50
2018-04-30T18:06:15.205Z,1.50
2018-04-30T18:08:44.221Z,1.40
2018-04-30T18:11:12.516Z,1.43
2018-04-30T18:13:40.764Z,7.03
2018-04-30T18:16:09.029Z,3.03
2018-04-30T18:18:38.052Z,7.00
2018-04-30T18:21:06.310Z,4.40
2018-04-30T18:23:34.616Z,2.03
2018-04-30T18:26:02.883Z,1.90
2018-04-30T18:28:31.155Z,2.07
2018-04-30T18:30:59.419Z,1.63
2018-04-30T18:33:27.716Z,1.70
2018-04-30T18:35:55.988Z,1.50
2018-04-30T18:38:24.232Z,2.00
2018-04-30T18:40:53.364Z,2.10
2018-04-30T18:43:21.636Z,1.93
2018-04-30T18:45:49.892Z,2.20
2018-04-30T18:48:18.140Z,7.83
2018-04-30T18:50:47.168Z,7.60
2018-04-30T18:53:15.403Z,2.70
2018-04-30T18:55:44.446Z,3.33
2018-04-30T18:58:12.723Z,2.33
2018-04-30T19:00:41.000Z,2.10
2018-04-30T19:03:09.264Z,2.23
2018-04-30T19:05:37.549Z,2.77
2018-04-30T19:08:05.867Z,1.57
2018-04-30T19:10:34.039Z,1.47
2018-04-30T19:13:03.080Z,1.63
2018-04-30T19:15:31.363Z,2.70
2018-04-30T19:17:59.741Z,1.60
2018-04-30T19:20:28.028Z,1.47
2018-04-30T19:22:56.283Z,1.20
2018-04-30T19:25:24.533Z,1.50
2018-04-30T19:27:52.835Z,1.63
2018-04-30T19:30:21.086Z,1.70
2018-04-30T19:32:50.101Z,1.40
2018-04-30T19:35:18.347Z,2.30
2018-04-30T19:37:47.380Z,2.00
2018-04-30T19:40:15.620Z,1.80
2018-04-30T19:42:43.936Z,1.10
2018-04-30T19:45:12.185Z,1.40
2018-04-30T19:47:40.442Z,1.20
2018-04-30T19:50:09.466Z,1.30
2018-04-30T19:52:37.712Z,1.20
2018-04-30T19:55:06.736Z,1.37
2018-04-30T19:57:35.020Z,1.70
2018-04-30T20:00:03.297Z,1.40
2018-04-30T20:02:31.549Z,1.50
2018-04-30T20:04:59.854Z,1.47
2018-04-30T20:07:28.123Z,1.30
2018-04-30T20:09:56.392Z,1.60
2018-04-30T20:12:24.668Z,1.80
2018-04-30T20:14:52.919Z,1.73
2018-04-30T20:17:21.847Z,1.47
2018-04-30T20:19:50.099Z,1.47
2018-04-30T20:22:18.344Z,1.67
2018-04-30T20:24:47.382Z,1.40
2018-04-30T20:27:15.627Z,1.33
2018-04-30T20:29:43.882Z,1.60
2018-04-30T20:32:12.900Z,1.80
2018-04-30T20:34:41.140Z,1.80
2018-04-30T20:37:09.470Z,1.63
2018-04-30T20:39:37.717Z,1.80
2018-04-30T20:42:06.032Z,2.07
2018-04-30T20:44:34.410Z,1.80
2018-04-30T20:47:02.711Z,2.03
2018-04-30T20:49:30.965Z,1.63
2018-04-30T20:51:59.340Z,2.20
2018-04-30T20:54:27.617Z,2.00
2018-04-30T20:56:55.885Z,1.77
2018-04-30T20:59:24.129Z,1.80
2018-04-30T21:01:52.380Z,1.53
2018-04-30T21:04:21.397Z,1.70
2018-04-30T21:06:49.646Z,1.77
2018-04-30T21:09:17.893Z,1.80
2018-04-30T21:11:46.173Z,2.00
2018-04-30T21:14:14.428Z,1.40
2018-04-30T21:16:42.674Z,1.40
2018-04-30T21:19:10.983Z,1.60
2018-04-30T21:21:39.232Z,1.20
2018-04-30T21:24:07.611Z,1.37
2018-04-30T21:26:37.317Z,1.60
2018-04-30T21:29:06.763Z,1.70
2018-04-30T21:31:35.019Z,1.40
2018-04-30T21:34:03.273Z,1.57
2018-04-30T21:36:31.572Z,1.57
2018-04-30T21:38:59.825Z,1.50
2018-04-30T21:41:28.091Z,1.60
2018-04-30T21:43:57.108Z,1.90
2018-04-30T21:46:25.396Z,1.47
2018-04-30T21:48:54.318Z,1.50
2018-04-30T21:51:24.089Z,1.50
2018-04-30T21:53:52.447Z,1.50
2018-04-30T21:56:20.643Z,1.20
2018-04-30T21:58:48.928Z,2.33
2018-04-30T22:01:17.203Z,1.57
2018-04-30T22:03:45.468Z,1.40
2018-04-30T22:06:13.982Z,1.30
2018-04-30T22:08:42.237Z,1.30
2018-04-30T22:11:10.500Z,1.20
2018-04-30T22:13:38.786Z,1.10
2018-04-30T22:16:07.028Z,1.07
2018-04-30T22:18:35.376Z,1.13
2018-04-30T22:21:03.717Z,0.90
2018-04-30T22:23:31.960Z,1.10
2018-04-30T22:26:00.256Z,1.00
2018-04-30T22:28:28.503Z,0.90
2018-04-30T22:30:57.537Z,0.87
2018-04-30T22:33:25.803Z,0.90
2018-04-30T22:35:54.051Z,1.00
2018-04-30T22:38:22.299Z,1.03
2018-04-30T22:40:51.332Z,0.90
2018-04-30T22:43:19.608Z,0.80
2018-04-30T22:45:47.864Z,0.90
2018-04-30T22:48:16.193Z,0.82
2018-04-30T22:50:44.452Z,0.80
2018-04-30T22:53:12.739Z,0.93
2018-04-30T22:55:43.011Z,0.90
2018-04-30T22:58:12.008Z,0.80
2018-04-30T23:00:40.284Z,0.83
2018-04-30T23:03:09.300Z,0.80
2018-04-30T23:05:38.349Z,0.70
2018-04-30T23:08:06.684Z,0.73
2018-04-30T23:10:34.945Z,0.60
2018-04-30T23:13:03.237Z,0.65
2018-04-30T23:15:31.521Z,0.80
2018-04-30T23:17:59.788Z,0.60
2018-04-30T23:20:28.047Z,0.90
2018-04-30T23:22:56.311Z,0.98
2018-04-30T23:25:24.566Z,0.65
2018-04-30T23:27:52.810Z,0.90
2018-04-30T23:30:21.073Z,0.68
2018-04-30T23:32:49.345Z,0.80
2018-04-30T23:35:17.607Z,0.90
2018-04-30T23:37:45.881Z,0.70
2018-04-30T23:40:14.127Z,1.00
2018-04-30T23:42:43.148Z,0.90
2018-04-30T23:45:11.404Z,1.00
2018-04-30T23:47:39.717Z,0.80
2018-04-30T23:50:07.960Z,0.90
2018-04-30T23:52:36.296Z,0.93
2018-04-30T23:55:04.657Z,1.20
2018-04-30T23:57:33.949Z,0.80
